Time;durP1;ratioP1;P1;durP2;ratioP2;P2;SDS_P1;SDS_P2;PMS_P1;PMS_P2;Temp;Humidity;BMP_temperature;BMP_pressure;BME280_temperature;BME280_humidity;BME280_pressure;Samples;Min_cycle;Max_cycle;Signal;HPM_P1;HPM_P2
2021/05/15 00:00:56;;;;;;;21.73;9.35;;;;;;;8.63;79.28;100998.44;5022902;28;20061;-69
2021/05/15 00:03:22;;;;;;;25.95;10.18;;;;;;;8.63;78.93;100999.28;5014498;28;20069;-69
2021/05/15 00:05:48;;;;;;;24.73;10.60;;;;;;;8.71;78.78;100992.03;5017544;28;20341;-69
2021/05/15 00:08:14;;;;;;;26.00;9.73;;;;;;;8.70;79.13;100982.31;5017932;28;20092;-69
2021/05/15 00:10:41;;;;;;;19.98;8.18;;;;;;;8.81;79.05;100990.03;5018770;28;20065;-69
2021/05/15 00:13:08;;;;;;;20.85;9.30;;;;;;;8.78;78.80;100980.38;5017742;28;20064;-70
2021/05/15 00:15:35;;;;;;;20.40;8.95;;;;;;;8.83;78.36;100974.91;5018591;28;20058;-69
2021/05/15 00:18:01;;;;;;;20.50;9.45;;;;;;;8.82;78.87;100973.19;5018141;28;20440;-70
2021/05/15 00:20:27;;;;;;;26.08;9.75;;;;;;;8.75;78.86;100969.78;5015526;28;20072;-69
2021/05/15 00:22:53;;;;;;;20.60;8.85;;;;;;;8.76;78.81;100973.31;5015402;28;20099;-69
2021/05/15 00:25:20;;;;;;;20.40;8.68;;;;;;;8.79;79.09;100975.91;5017952;28;20104;-69
2021/05/15 00:27:46;;;;;;;20.88;9.13;;;;;;;8.76;78.70;100973.31;5020474;28;20061;-69
2021/05/15 00:30:14;;;;;;;26.27;10.13;;;;;;;8.73;79.04;100965.38;5015342;28;20053;-69
2021/05/15 00:32:41;;;;;;;18.52;8.60;;;;;;;8.83;78.78;100972.25;5016429;28;20061;-69
2021/05/15 00:35:10;;;;;;;23.58;9.30;;;;;;;8.83;78.69;100974.03;5016830;28;20061;-69
2021/05/15 00:37:36;;;;;;;23.70;10.18;;;;;;;8.88;78.45;100974.81;5017545;28;20054;-69
2021/05/15 00:40:03;;;;;;;19.35;8.35;;;;;;;8.92;78.81;100971.16;5013437;28;20144;-68
2021/05/15 00:42:29;;;;;;;24.00;9.85;;;;;;;8.79;78.12;100975.91;5018803;28;20060;-68
2021/05/15 00:44:55;;;;;;;24.77;9.27;;;;;;;8.82;78.01;100966.97;5019436;28;20069;-69
2021/05/15 00:47:22;;;;;;;23.90;9.25;;;;;;;8.87;78.31;100968.63;5015212;28;20066;-71
2021/05/15 00:49:51;;;;;;;21.90;8.93;;;;;;;8.79;78.29;100967.94;5018632;28;20065;-69
2021/05/15 00:52:18;;;;;;;24.80;9.40;;;;;;;8.74;78.59;100969.81;5017557;28;20188;-69
2021/05/15 00:54:44;;;;;;;20.35;9.05;;;;;;;8.81;78.35;100959.91;5020009;28;20072;-69
2021/05/15 00:57:12;;;;;;;22.60;8.98;;;;;;;8.84;78.01;100954.53;5017586;28;20080;-69
2021/05/15 00:59:39;;;;;;;22.50;8.82;;;;;;;8.79;78.48;100955.47;5019508;28;20088;-69
2021/05/15 01:02:08;;;;;;;20.92;9.20;;;;;;;8.80;77.78;100951.03;5015778;28;20072;-69
2021/05/15 01:04:34;;;;;;;20.08;8.80;;;;;;;8.78;78.31;100952.84;5018351;28;20341;-69
2021/05/15 01:07:02;;;;;;;17.65;8.32;;;;;;;8.76;78.09;100954.69;5015796;28;20093;-69
2021/05/15 01:09:28;;;;;;;22.38;8.88;;;;;;;8.74;78.35;100945.88;5019205;28;20069;-70
2021/05/15 01:11:55;;;;;;;24.42;9.25;;;;;;;8.73;78.18;100952.09;5017426;28;20053;-69
2021/05/15 01:14:21;;;;;;;22.08;9.45;;;;;;;8.71;78.30;100956.56;5015899;28;20061;-69
2021/05/15 01:16:49;;;;;;;21.30;9.07;;;;;;;8.71;78.04;100945.94;5017340;28;20309;-69
2021/05/15 01:19:15;;;;;;;20.73;8.98;;;;;;;8.71;78.45;100945.94;5015676;28;20053;-69
2021/05/15 01:21:43;;;;;;;22.27;9.05;;;;;;;8.73;78.35;100933.47;5018428;28;20446;-69
2021/05/15 01:24:10;;;;;;;25.98;10.13;;;;;;;8.76;78.37;100933.41;5014706;28;20049;-69
2021/05/15 01:26:36;;;;;;;23.30;9.43;;;;;;;8.70;78.59;100925.53;5017761;28;20072;-69
2021/05/15 01:29:05;;;;;;;23.50;10.13;;;;;;;8.70;78.36;100918.47;5014012;28;20161;-69
2021/05/15 01:31:31;;;;;;;21.38;9.10;;;;;;;8.67;78.31;100918.53;5019105;28;20061;-69
2021/05/15 01:33:58;;;;;;;24.90;10.40;;;;;;;8.67;77.94;100909.69;5013892;28;20061;-69
2021/05/15 01:36:26;;;;;;;26.55;10.75;;;;;;;8.72;77.94;100906.00;5020478;28;20070;-69
2021/05/15 01:38:53;;;;;;;30.27;12.55;;;;;;;8.70;77.89;100906.94;5017460;28;20072;-69
2021/05/15 01:41:20;;;;;;;27.92;12.05;;;;;;;8.66;78.27;100900.81;5020530;28;20088;-70
2021/05/15 01:43:47;;;;;;;23.75;10.48;;;;;;;8.63;78.23;100902.66;5015609;28;20072;-69
2021/05/15 01:46:14;;;;;;;31.73;12.38;;;;;;;8.63;78.45;100890.22;5018181;28;20522;-69
2021/05/15 01:48:41;;;;;;;26.85;11.05;;;;;;;8.62;78.24;100883.19;5014092;28;20183;-69
2021/05/15 01:51:10;;;;;;;31.40;11.73;;;;;;;8.62;78.18;100884.97;5016782;28;20453;-69
2021/05/15 01:53:38;;;;;;;22.98;11.13;;;;;;;8.66;78.19;100884.84;5015487;28;20090;-69
2021/05/15 01:56:08;;;;;;;25.42;10.80;;;;;;;8.71;77.72;100876.75;5020266;28;20091;-69
2021/05/15 01:58:34;;;;;;;21.67;9.70;;;;;;;8.74;77.41;100872.25;5015525;28;20074;-68
2021/05/15 02:01:00;;;;;;;20.80;9.80;;;;;;;8.76;77.93;100873.06;5017361;28;20443;-69
2021/05/15 02:03:26;;;;;;;22.92;9.65;;;;;;;8.76;77.90;100874.88;5014108;28;20053;-69
2021/05/15 02:05:54;;;;;;;21.55;9.23;;;;;;;8.81;77.70;100870.31;5015755;28;20354;-70
2021/05/15 02:08:22;;;;;;;22.92;10.18;;;;;;;8.77;77.35;100866.00;5015093;28;20097;-70
2021/05/15 02:10:49;;;;;;;22.48;10.00;;;;;;;8.76;78.14;100864.22;5020370;28;20069;-69
2021/05/15 02:13:17;;;;;;;21.02;9.35;;;;;;;8.81;78.20;100864.13;5013211;28;20076;-70
2021/05/15 02:15:44;;;;;;;22.45;10.60;;;;;;;8.90;78.08;100858.56;5016393;28;20073;-70
2021/05/15 02:18:12;;;;;;;21.55;9.95;;;;;;;8.92;77.80;100849.66;5013231;28;20065;-69
2021/05/15 02:20:39;;;;;;;23.80;9.25;;;;;;;8.96;77.86;100853.97;5019723;28;20139;-69
2021/05/15 02:23:06;;;;;;;23.45;9.70;;;;;;;8.91;77.89;100853.22;5012742;28;20062;-70
2021/05/15 02:25:32;;;;;;;21.80;9.13;;;;;;;8.92;77.46;100839.00;5018690;28;20203;-70
2021/05/15 02:27:58;;;;;;;25.02;9.43;;;;;;;8.92;76.98;100849.66;5011213;28;20067;-70
2021/05/15 02:30:26;;;;;;;18.70;8.95;;;;;;;8.95;76.66;100846.88;5016432;28;20243;-69
2021/05/15 02:32:52;;;;;;;20.42;8.77;;;;;;;8.95;77.06;100846.88;5015149;28;20135;-70
2021/05/15 02:35:19;;;;;;;20.42;8.45;;;;;;;8.85;76.84;100848.03;5019930;28;20127;-69
2021/05/15 02:37:47;;;;;;;23.65;10.60;;;;;;;8.83;77.15;100852.50;5012104;28;20396;-68
2021/05/15 02:40:14;;;;;;;18.48;8.77;;;;;;;8.82;77.00;100845.47;5020832;28;20436;-69
2021/05/15 02:42:40;;;;;;;22.95;8.93;;;;;;;8.78;77.19;100852.66;5013521;28;20444;-69
2021/05/15 02:45:10;;;;;;;21.05;9.20;;;;;;;8.70;77.25;100843.06;5019050;28;20164;-68
2021/05/15 02:47:37;;;;;;;22.25;9.63;;;;;;;8.69;77.06;100844.00;5019633;28;20104;-68
2021/05/15 02:50:04;;;;;;;31.45;10.20;;;;;;;8.68;78.04;100844.91;5020140;28;20148;-69
2021/05/15 02:52:30;;;;;;;22.38;9.80;;;;;;;8.79;77.38;100848.19;5018856;28;20092;-69
2021/05/15 02:54:56;;;;;;;23.80;10.32;;;;;;;8.76;77.71;100846.47;5017435;28;20081;-69
2021/05/15 02:57:23;;;;;;;23.40;10.95;;;;;;;8.76;77.60;100853.59;5022767;28;20072;-70
2021/05/15 02:59:48;;;;;;;24.88;10.63;;;;;;;8.73;77.91;100846.53;5019203;28;20061;-69
2021/05/15 03:02:15;;;;;;;27.08;11.48;;;;;;;8.70;77.65;100843.06;5017725;28;20073;-70
2021/05/15 03:04:42;;;;;;;22.30;10.52;;;;;;;8.72;78.42;100835.97;5020404;28;20096;-69
2021/05/15 03:07:08;;;;;;;23.67;10.30;;;;;;;8.71;77.88;100837.72;5020252;28;20064;-70
2021/05/15 03:09:34;;;;;;;31.67;10.98;;;;;;;8.71;78.48;100839.53;5019937;28;20097;-68
2021/05/15 03:12:00;;;;;;;24.70;10.25;;;;;;;8.66;79.35;100836.97;5020763;28;20065;-69
2021/05/15 03:14:26;;;;;;;24.67;10.63;;;;;;;8.66;79.15;100841.41;5021436;28;20058;-69
2021/05/15 03:16:52;;;;;;;24.35;11.05;;;;;;;8.56;79.45;100839.00;5018832;28;20200;-71
2021/05/15 03:19:18;;;;;;;24.38;10.60;;;;;;;8.56;79.83;100835.44;5020486;28;20182;-69
2021/05/15 03:21:45;;;;;;;27.38;11.63;;;;;;;8.50;80.24;100836.47;5016924;28;20069;-69
2021/05/15 03:24:12;;;;;;;24.55;10.35;;;;;;;8.54;79.97;100842.59;5021297;28;20444;-70
2021/05/15 03:26:38;;;;;;;24.60;10.02;;;;;;;8.56;79.92;100841.66;5015909;28;20068;-70
2021/05/15 03:29:04;;;;;;;25.30;10.93;;;;;;;8.53;80.06;100839.06;5019615;28;20057;-70
2021/05/15 03:31:30;;;;;;;20.77;9.05;;;;;;;8.65;80.09;100834.34;5016746;28;20069;-69
2021/05/15 03:33:56;;;;;;;24.75;10.73;;;;;;;8.57;80.04;100837.19;5022238;28;20057;-71
2021/05/15 03:36:24;;;;;;;24.92;10.57;;;;;;;8.55;80.05;100837.22;5016602;28;20195;-69
2021/05/15 03:38:51;;;;;;;26.65;11.00;;;;;;;8.54;79.65;100832.81;5021346;28;20127;-69
2021/05/15 03:41:17;;;;;;;24.80;10.82;;;;;;;8.53;79.65;100825.75;5017795;28;20456;-70
2021/05/15 03:43:43;;;;;;;21.35;9.55;;;;;;;8.52;79.88;100817.81;5016600;28;20061;-71
2021/05/15 03:46:09;;;;;;;26.70;11.13;;;;;;;8.55;79.42;100818.63;5019291;28;20068;-70
2021/05/15 03:48:35;;;;;;;28.15;10.45;;;;;;;8.55;79.41;100818.63;5017132;28;20353;-70
2021/05/15 03:51:01;;;;;;;22.00;9.73;;;;;;;8.46;79.54;100813.50;5019697;28;20069;-70
2021/05/15 03:53:27;;;;;;;24.02;10.80;;;;;;;8.42;79.66;100814.47;5017861;28;20453;-70
2021/05/15 03:55:54;;;;;;;30.05;11.65;;;;;;;8.39;79.14;100810.09;5018261;28;20100;-70
2021/05/15 03:58:20;;;;;;;29.50;12.63;;;;;;;8.37;79.24;100811.03;5017318;28;20688;-70
2021/05/15 04:00:46;;;;;;;29.48;11.48;;;;;;;8.35;79.61;100804.88;5019704;28;20104;-70
2021/05/15 04:03:13;;;;;;;30.77;11.85;;;;;;;8.41;79.84;100799.41;5018815;28;20081;-70
2021/05/15 04:05:39;;;;;;;27.83;10.90;;;;;;;8.50;79.33;100795.72;5016614;28;20072;-69
2021/05/15 04:08:05;;;;;;;28.25;10.95;;;;;;;8.49;79.15;100791.28;5018228;28;20061;-69
2021/05/15 04:10:31;;;;;;;22.35;10.07;;;;;;;8.45;78.99;100790.50;5016323;28;20128;-69
2021/05/15 04:13:05;;;;;;;25.52;10.00;;;;;;;8.49;78.77;100793.94;5017192;28;20456;-69
2021/05/15 04:15:37;;;;;;;;;;;;;;;8.56;78.56;100795.53;5018268;28;20061;-69
2021/05/15 04:18:05;;;;;;;27.67;11.07;;;;;;;8.58;78.95;100791.94;5019885;28;20379;-69
2021/05/15 04:20:33;;;;;;;26.48;9.75;;;;;;;8.48;78.90;100797.50;5020845;28;20542;-69
2021/05/15 04:22:59;;;;;;;27.20;10.20;;;;;;;8.54;78.53;100792.91;5016382;28;20069;-70
2021/05/15 04:25:25;;;;;;;26.20;10.82;;;;;;;8.49;78.95;100799.25;5019284;28;20095;-69
2021/05/15 04:27:51;;;;;;;26.58;10.40;;;;;;;8.42;79.50;100790.53;5019443;28;20097;-69
2021/05/15 04:30:19;;;;;;;24.80;10.35;;;;;;;8.51;79.26;100787.69;5021293;28;20184;-69
2021/05/15 04:32:45;;;;;;;25.02;10.57;;;;;;;8.51;78.99;100790.34;5017873;28;20811;-69
2021/05/15 04:35:11;;;;;;;24.80;10.57;;;;;;;8.59;79.34;100784.84;5021257;28;20383;-69
2021/05/15 04:37:37;;;;;;;27.35;10.93;;;;;;;8.46;79.63;100786.03;5017262;28;20065;-69
2021/05/15 04:40:04;;;;;;;21.95;9.43;;;;;;;8.45;78.87;100792.28;5022963;28;20088;-70
2021/05/15 04:42:30;;;;;;;23.88;9.73;;;;;;;8.39;79.25;100796.81;5014236;28;20093;-70
2021/05/15 04:44:57;;;;;;;26.23;9.82;;;;;;;8.45;79.46;100797.59;5022825;28;20461;-68
2021/05/15 04:47:24;;;;;;;27.95;9.43;;;;;;;8.44;79.56;100803.81;5015267;28;20097;-68
2021/05/15 04:49:50;;;;;;;27.10;11.77;;;;;;;8.46;79.59;100802.84;5022873;28;20069;-69
2021/05/15 04:52:16;;;;;;;29.17;11.20;;;;;;;8.47;79.54;100795.78;5012250;28;20058;-69
2021/05/15 04:54:42;;;;;;;28.42;10.13;;;;;;;8.47;79.71;100793.97;5021747;28;20084;-69
2021/05/15 04:57:08;;;;;;;24.70;11.25;;;;;;;8.48;79.73;100789.53;5016607;28;20152;-69
2021/05/15 04:59:34;;;;;;;26.48;10.75;;;;;;;8.51;79.67;100790.34;5020658;28;20218;-69
2021/05/15 05:02:00;;;;;;;27.33;10.52;;;;;;;8.55;79.72;100789.34;5017583;28;20061;-70
2021/05/15 05:04:27;;;;;;;28.33;11.25;;;;;;;8.57;79.03;100787.53;5021520;28;20500;-71
2021/05/15 05:06:53;;;;;;;25.88;10.57;;;;;;;8.62;78.94;100782.09;5015641;28;20248;-70
2021/05/15 05:09:19;;;;;;;25.45;10.63;;;;;;;8.69;78.95;100777.50;5015567;28;20076;-71
2021/05/15 05:11:47;;;;;;;24.05;9.95;;;;;;;8.68;78.92;100779.28;5016310;28;20076;-69
2021/05/15 05:14:13;;;;;;;27.45;10.85;;;;;;;8.72;79.32;100772.13;5017365;28;20090;-69
2021/05/15 05:16:40;;;;;;;29.23;10.43;;;;;;;8.81;78.79;100768.34;5014075;28;20057;-69
2021/05/15 05:19:06;;;;;;;26.17;11.55;;;;;;;8.89;78.93;100769.03;5015112;28;20129;-70
2021/05/15 05:21:33;;;;;;;28.95;11.57;;;;;;;8.93;79.48;100770.66;5017725;28;20068;-69
2021/05/15 05:23:59;;;;;;;24.83;11.10;;;;;;;8.95;79.00;100767.03;5019343;28;20085;-69
2021/05/15 05:26:25;;;;;;;29.40;12.30;;;;;;;9.02;78.43;100769.56;5015365;28;20061;-70
2021/05/15 05:28:51;;;;;;;28.70;10.65;;;;;;;9.05;78.47;100767.69;5018388;28;20065;-69
2021/05/15 05:31:19;;;;;;;30.42;11.80;;;;;;;8.89;77.91;100772.53;5013055;28;20094;-70
2021/05/15 05:33:46;;;;;;;28.20;11.80;;;;;;;8.93;78.11;100770.66;5018297;28;20127;-69
2021/05/15 05:36:13;;;;;;;25.30;10.82;;;;;;;8.97;78.20;100775.88;5013529;28;20369;-69
2021/05/15 05:38:40;;;;;;;27.02;10.63;;;;;;;9.07;78.12;100772.97;5020351;28;20062;-69
2021/05/15 05:41:06;;;;;;;31.92;11.77;;;;;;;8.95;77.59;100775.03;5018368;28;20169;-70
2021/05/15 05:43:32;;;;;;;28.52;10.15;;;;;;;9.03;77.29;100772.19;5012142;28;20349;-69
2021/05/15 05:45:58;;;;;;;29.70;10.68;;;;;;;9.02;78.09;100770.41;5017041;28;20108;-69
2021/05/15 05:48:25;;;;;;;27.73;11.15;;;;;;;9.05;77.39;100780.13;5022304;28;20068;-69
2021/05/15 05:50:51;;;;;;;28.00;11.50;;;;;;;9.19;77.79;100774.41;5019395;28;20523;-71
2021/05/15 05:53:17;;;;;;;30.67;11.30;;;;;;;9.16;77.70;100767.41;5019465;28;20097;-70
2021/05/15 05:55:44;;;;;;;27.65;11.73;;;;;;;9.10;77.32;100773.75;5018920;28;20057;-77
2021/05/15 05:58:10;;;;;;;28.85;11.05;;;;;;;9.08;76.99;100772.06;5019880;28;20212;-69
2021/05/15 06:00:36;;;;;;;25.50;9.93;;;;;;;9.08;77.13;100766.75;5018366;28;20331;-69
2021/05/15 06:03:02;;;;;;;28.55;11.00;;;;;;;9.10;77.50;100771.09;5019581;28;20400;-68
2021/05/15 06:05:28;;;;;;;26.38;11.73;;;;;;;9.15;77.43;100770.97;5018118;28;20061;-70
2021/05/15 06:07:54;;;;;;;28.23;11.95;;;;;;;9.27;78.02;100764.44;5023339;28;20069;-70
2021/05/15 06:10:20;;;;;;;31.05;12.50;;;;;;;9.30;77.12;100756.38;5015117;28;20061;-69
2021/05/15 06:12:47;;;;;;;27.70;10.85;;;;;;;9.31;77.17;100760.75;5015498;28;20064;-69
2021/05/15 06:15:14;;;;;;;33.55;12.57;;;;;;;9.18;77.00;100759.34;5017310;28;20057;-69
2021/05/15 06:17:40;;;;;;;29.60;12.02;;;;;;;9.36;76.93;100750.84;5016365;28;20061;-71
2021/05/15 06:20:06;;;;;;;29.15;11.82;;;;;;;9.33;76.79;100749.16;5018653;28;20069;-71
2021/05/15 06:22:32;;;;;;;33.08;11.77;;;;;;;9.42;76.64;100750.69;5024193;28;20426;-70
2021/05/15 06:24:58;;;;;;;29.77;11.68;;;;;;;9.32;76.53;100755.41;5022949;28;20069;-69
2021/05/15 06:27:25;;;;;;;29.33;11.70;;;;;;;9.44;76.75;100755.97;5019523;28;20128;-70
2021/05/15 06:29:51;;;;;;;29.95;11.35;;;;;;;9.47;75.84;100756.75;5020550;28;20479;-69
2021/05/15 06:32:17;;;;;;;29.77;10.70;;;;;;;9.45;76.75;100758.59;5026910;28;20815;-71
2021/05/15 06:34:44;;;;;;;34.33;13.45;;;;;;;9.54;76.56;100757.44;5023486;28;20061;-69
2021/05/15 06:37:10;;;;;;;39.38;12.43;;;;;;;9.68;75.62;100757.91;5025819;28;20057;-69
2021/05/15 06:39:36;;;;;;;31.70;11.95;;;;;;;9.72;75.39;100753.34;5023554;28;20058;-70
2021/05/15 06:42:02;;;;;;;30.48;11.73;;;;;;;9.88;75.44;100753.78;5020992;28;20336;-70
2021/05/15 06:44:28;;;;;;;26.40;11.40;;;;;;;9.99;75.27;100748.97;5020539;28;20294;-78
2021/05/15 06:46:55;;;;;;;37.00;13.65;;;;;;;9.92;74.45;100747.44;5024770;28;20061;-77
2021/05/15 06:49:21;;;;;;;35.78;13.43;;;;;;;9.83;74.33;100743.25;5023796;28;20064;-76
2021/05/15 06:51:47;;;;;;;43.60;16.65;;;;;;;9.81;73.68;100739.78;5022644;28;20066;-77
2021/05/15 06:54:13;;;;;;;39.78;15.85;;;;;;;9.93;73.73;100737.63;5021670;28;20065;-76
2021/05/15 06:56:39;;;;;;;37.45;14.63;;;;;;;9.95;73.29;100736.69;5021232;28;20110;-77
2021/05/15 06:59:05;;;;;;;36.80;14.25;;;;;;;10.02;73.01;100737.38;5023334;28;20065;-76
2021/05/15 07:01:31;;;;;;;31.98;14.18;;;;;;;10.16;73.17;100734.25;5021886;28;20062;-77
2021/05/15 07:03:58;;;;;;;33.88;14.35;;;;;;;10.41;72.84;100729.91;5021113;28;20065;-76
2021/05/15 07:06:25;;;;;;;26.77;11.38;;;;;;;10.60;72.17;100729.28;5026465;28;20061;-76
2021/05/15 07:08:51;;;;;;;33.28;13.77;;;;;;;10.78;71.32;100722.47;5019264;28;20487;-78
2021/05/15 07:11:17;;;;;;;32.47;14.13;;;;;;;11.13;69.70;100715.84;5026095;28;20061;-76
2021/05/15 07:13:44;;;;;;;45.38;15.68;;;;;;;10.88;69.59;100721.22;5020446;28;20066;-77
2021/05/15 07:16:10;;;;;;;34.90;14.75;;;;;;;10.67;70.21;100722.81;5042155;28;20058;-78
2021/05/15 07:18:36;;;;;;;37.97;15.13;;;;;;;10.71;70.14;100721.78;5019066;28;20061;-76
2021/05/15 07:21:03;;;;;;;37.63;14.90;;;;;;;11.17;68.79;100712.16;5023955;28;20053;-76
2021/05/15 07:23:29;;;;;;;31.00;13.63;;;;;;;11.47;67.96;100709.25;5018427;28;20097;-76
2021/05/15 07:25:56;;;;;;;34.58;14.70;;;;;;;11.74;68.08;100699.31;5021895;28;20084;-77
2021/05/15 07:28:22;;;;;;;35.35;13.70;;;;;;;11.87;66.69;100702.38;5023555;28;20049;-75
2021/05/15 07:30:48;;;;;;;31.73;14.30;;;;;;;12.59;64.99;100703.91;5019755;28;20068;-79
2021/05/15 07:33:14;;;;;;;32.45;13.82;;;;;;;13.60;63.23;100693.22;5016862;28;20073;-77
2021/05/15 07:35:40;;;;;;;36.30;14.48;;;;;;;14.07;59.79;100683.81;5022206;28;20384;-76
2021/05/15 07:38:07;;;;;;;32.47;14.18;;;;;;;13.39;60.08;100688.84;5023203;28;20057;-77
2021/05/15 07:40:34;;;;;;;31.35;13.52;;;;;;;12.87;61.60;100678.63;5020982;28;20065;-76
2021/05/15 07:43:04;;;;;;;31.10;13.52;;;;;;;12.48;62.53;100684.75;5017096;28;20053;-76
2021/05/15 07:45:30;;;;;;;32.70;13.65;;;;;;;12.30;63.22;100687.28;5019677;28;20104;-77
2021/05/15 07:47:56;;;;;;;31.83;12.98;;;;;;;13.34;60.15;100675.66;5017683;28;20465;-77
2021/05/15 07:50:23;;;;;;;30.23;14.18;;;;;;;13.79;57.43;100679.78;5021423;28;20099;-76
2021/05/15 07:52:49;;;;;;;29.48;12.73;;;;;;;13.27;58.88;100680.38;5020992;28;20069;-77
2021/05/15 07:55:16;;;;;;;37.13;17.05;;;;;;;13.90;58.29;100679.28;5022123;28;20065;-77
2021/05/15 07:57:42;;;;;;;36.35;15.02;;;;;;;14.01;58.98;100671.56;5022785;28;20057;-77
2021/05/15 08:00:09;;;;;;;34.15;14.55;;;;;;;14.52;56.88;100677.09;5038194;28;20066;-77
2021/05/15 08:02:36;;;;;;;27.17;12.98;;;;;;;15.22;54.96;100665.41;5023036;28;20149;-78
2021/05/15 08:05:03;;;;;;;27.30;13.00;;;;;;;15.77;53.96;100666.94;5023199;28;20053;-76
2021/05/15 08:07:29;;;;;;;23.65;12.18;;;;;;;14.94;53.54;100678.50;5024253;28;20100;-76
2021/05/15 08:09:55;;;;;;;22.27;11.07;;;;;;;15.09;52.47;100671.47;5021151;28;20065;-76
2021/05/15 08:12:23;;;;;;;20.33;10.65;;;;;;;15.17;51.99;100654.94;5024693;28;20149;-76
2021/05/15 08:14:49;;;;;;;18.10;9.93;;;;;;;15.77;51.47;100653.47;5023524;28;20061;-75
2021/05/15 08:17:15;;;;;;;20.10;9.40;;;;;;;15.78;51.14;100649.81;5023469;28;20061;-75
2021/05/15 08:19:41;;;;;;;18.30;9.15;;;;;;;15.96;48.72;100645.22;5019566;28;20053;-76
2021/05/15 08:22:07;;;;;;;23.17;9.23;;;;;;;15.58;49.56;100643.72;5024106;28;20208;-76
2021/05/15 08:24:33;;;;;;;20.08;9.73;;;;;;;16.43;49.69;100647.81;5017705;28;20053;-76
2021/05/15 08:27:00;;;;;;;19.35;8.95;;;;;;;16.46;46.48;100637.81;5019185;28;20066;-76
2021/05/15 08:29:28;;;;;;;20.48;10.35;;;;;;;16.24;47.24;100642.66;5023053;28;20534;-76
2021/05/15 08:31:55;;;;;;;18.58;9.40;;;;;;;16.88;47.50;100636.19;5019630;28;20069;-77
2021/05/15 08:34:21;;;;;;;19.35;8.63;;;;;;;16.08;46.18;100640.94;5019197;28;20103;-76
2021/05/15 08:36:48;;;;;;;19.05;9.05;;;;;;;15.75;46.97;100631.13;5023800;28;20057;-77
2021/05/15 08:39:14;;;;;;;18.23;8.45;;;;;;;15.92;46.40;100631.06;5022270;28;20092;-76
2021/05/15 08:41:40;;;;;;;20.30;8.73;;;;;;;16.16;46.39;100633.31;5020354;28;20510;-76
2021/05/15 08:44:12;;;;;;;18.55;9.20;;;;;;;14.86;47.96;100640.44;5020587;28;20096;-76
2021/05/15 08:46:42;;;;;;;18.52;8.65;;;;;;;15.24;49.22;100636.66;5021040;28;20096;-76
2021/05/15 08:49:08;;;;;;;24.00;10.43;;;;;;;14.89;48.86;100626.84;5021627;28;20144;-76
2021/05/15 08:51:35;;;;;;;21.08;9.32;;;;;;;14.62;50.54;100631.84;5022470;28;20076;-75
2021/05/15 08:54:01;;;;;;;24.45;10.10;;;;;;;14.40;53.50;100632.06;5017707;28;20344;-76
2021/05/15 08:56:29;;;;;;;26.77;11.05;;;;;;;13.99;53.96;100627.84;5020596;28;20061;-75
2021/05/15 08:58:56;;;;;;;26.20;11.45;;;;;;;13.39;54.67;100630.75;5016705;28;20161;-76
2021/05/15 09:01:22;;;;;;;21.30;11.05;;;;;;;13.98;54.74;100626.13;5035776;28;20061;-76
2021/05/15 09:03:49;;;;;;;24.20;10.48;;;;;;;13.85;53.56;100618.75;5017041;28;20400;-76
2021/05/15 09:06:17;;;;;;;25.05;12.40;;;;;;;13.39;55.86;100619.16;5019763;28;20061;-77
2021/05/15 09:08:47;;;;;;;22.30;10.93;;;;;;;14.10;55.41;100626.47;5027467;28;20069;-76
2021/05/15 09:11:15;;;;;;;26.40;12.07;;;;;;;13.94;54.56;100615.63;5021674;28;20061;-76
2021/05/15 09:13:50;;;;;;;26.10;13.02;;;;;;;13.28;55.66;100616.97;5019387;28;20064;-76
2021/05/15 09:16:18;;;;;;;24.77;11.30;;;;;;;13.52;55.75;100625.69;5021983;28;20111;-76
2021/05/15 09:18:45;;;;;;;26.48;12.98;;;;;;;13.32;56.46;100617.72;5017945;28;20337;-76
2021/05/15 09:21:16;;;;;;;31.23;13.95;;;;;;;13.16;56.58;100607.69;5024060;28;20104;-76
2021/05/15 09:23:46;;;;;;;26.70;11.95;;;;;;;13.43;56.68;100599.31;5019697;28;20534;-77
2021/05/15 09:26:15;;;;;;;30.25;14.02;;;;;;;13.48;56.90;100607.13;5021268;28;20085;-77
2021/05/15 09:28:44;;;;;;;27.92;13.63;;;;;;;12.90;57.60;100600.84;5018129;28;20057;-77
2021/05/15 09:31:18;;;;;;;33.58;14.90;;;;;;;12.83;58.29;100605.59;5024591;28;20054;-76
2021/05/15 09:33:47;;;;;;;33.70;15.88;;;;;;;12.84;58.20;100604.66;5017819;28;20188;-77
2021/05/15 09:36:18;;;;;;;35.65;17.05;;;;;;;12.66;59.49;100603.66;5027304;28;20371;-76
2021/05/15 09:39:04;;;;;;;38.67;18.15;;;;;;;12.47;59.74;100598.28;5017048;28;20108;-76
2021/05/15 09:41:34;;;;;;;33.55;16.40;;;;;;;12.72;59.33;100602.56;5022398;28;20144;-76
2021/05/15 09:44:02;;;;;;;36.45;17.73;;;;;;;12.85;59.42;100595.69;5016836;28;20745;-76
2021/05/15 09:46:32;;;;;;;35.05;16.85;;;;;;;12.97;59.72;100585.34;5021354;28;20061;-75
2021/05/15 09:48:59;;;;;;;37.08;17.05;;;;;;;13.07;58.98;100584.00;5019779;28;20067;-76
2021/05/15 09:51:28;;;;;;;37.13;17.45;;;;;;;13.00;59.65;100579.88;5017962;28;20065;-76
2021/05/15 09:53:55;;;;;;;31.10;16.48;;;;;;;12.91;59.33;100578.47;5018559;28;20378;-76
2021/05/15 09:56:27;;;;;;;37.38;18.17;;;;;;;12.60;59.96;100587.00;5019781;28;20060;-69
2021/05/15 09:58:56;;;;;;;38.40;17.77;;;;;;;12.06;62.18;100589.34;5016681;28;20462;-69
2021/05/15 10:01:23;;;;;;;42.25;19.85;;;;;;;12.21;63.50;100588.72;5020345;28;20057;-69
2021/05/15 10:03:58;;;;;;;43.30;19.42;;;;;;;12.32;64.44;100583.75;5016617;28;20336;-69
2021/05/15 10:06:27;;;;;;;44.35;19.90;;;;;;;12.45;64.79;100585.91;5018757;28;20049;-69
2021/05/15 10:08:54;;;;;;;48.38;21.92;;;;;;;12.33;68.38;100579.28;5019443;28;20336;-69
2021/05/15 10:11:24;;;;;;;61.97;25.25;;;;;;;12.50;68.09;100575.88;5018964;28;20068;-68
2021/05/15 10:13:52;;;;;;;58.22;24.30;;;;;;;12.71;66.42;100569.53;5020718;28;20360;-70
2021/05/15 10:16:19;;;;;;;52.97;24.58;;;;;;;13.05;66.99;100561.78;5019466;28;20057;-70
2021/05/15 10:18:48;;;;;;;60.13;25.23;;;;;;;13.46;66.23;100553.59;5020780;28;20057;-70
2021/05/15 10:21:15;;;;;;;59.03;25.33;;;;;;;13.68;65.85;100557.91;5019889;28;20144;-77
2021/05/15 10:23:45;;;;;;;56.78;25.27;;;;;;;13.72;64.55;100551.44;5014399;28;20444;-77
2021/05/15 10:26:20;;;;;;;56.13;24.92;;;;;;;13.49;62.83;100550.78;5023962;28;20061;-78
2021/05/15 10:28:58;;;;;;;56.75;23.98;;;;;;;13.08;64.25;100541.06;5024045;28;20221;-77
2021/05/15 10:31:37;;;;;;;61.35;28.38;;;;;;;12.60;63.72;100547.75;5019016;28;20059;-76
2021/05/15 10:34:06;;;;;;;59.75;25.30;;;;;;;12.83;64.12;100535.13;5022597;28;20061;-77
2021/05/15 10:36:44;;;;;;;60.78;27.33;;;;;;;12.94;63.03;100537.28;5019791;28;20112;-77
2021/05/15 10:39:13;;;;;;;63.75;28.40;;;;;;;12.60;64.08;100534.38;5022324;28;20444;-78
2021/05/15 10:41:47;;;;;;;70.43;28.42;;;;;;;12.70;64.22;100534.81;5019587;28;20065;-69
2021/05/15 10:44:16;;;;;;;66.82;30.08;;;;;;;12.76;64.17;100531.00;5016202;28;20181;-69
2021/05/15 10:46:45;;;;;;;70.38;27.92;;;;;;;12.58;64.17;100532.69;5020662;28;20061;-69
2021/05/15 10:49:22;;;;;;;66.10;29.45;;;;;;;12.45;64.87;100530.56;5018515;28;20061;-70
2021/05/15 10:51:54;;;;;;;64.78;29.30;;;;;;;12.44;65.07;100527.97;5020905;28;20057;-69
2021/05/15 10:54:34;;;;;;;69.20;29.70;;;;;;;12.47;64.72;100519.81;5019854;28;20050;-69
2021/05/15 10:57:03;;;;;;;64.78;29.83;;;;;;;12.60;64.35;100518.31;5020584;28;20089;-69
2021/05/15 10:59:31;;;;;;;70.15;30.92;;;;;;;12.81;64.67;100519.13;5021325;28;20061;-70
2021/05/15 11:02:00;;;;;;;69.63;30.15;;;;;;;13.07;64.31;100523.25;5017367;28;20054;-69
2021/05/15 11:04:31;;;;;;;73.30;30.25;;;;;;;13.01;63.69;100515.50;5016967;28;20061;-69
2021/05/15 11:07:00;;;;;;;71.53;29.33;;;;;;;12.91;64.39;100511.53;5022168;28;20061;-70
2021/05/15 11:09:30;;;;;;;67.38;29.67;;;;;;;12.93;63.82;100500.75;5020647;28;20138;-69
2021/05/15 11:12:14;;;;;;;76.72;29.92;;;;;;;12.57;65.37;100497.03;5022300;28;20049;-69
2021/05/15 11:14:43;;;;;;;77.15;33.08;;;;;;;12.76;65.53;100506.91;5023540;28;20475;-69
2021/05/15 11:17:23;;;;;;;74.40;32.15;;;;;;;12.55;68.38;100500.72;5023574;28;20065;-70